WetterOnline ( https://www.wetteronline.de )

Wetter aktuell Weilheim

Aktuelles Wetter: Hohenpeißenberg (986m)

6-stündlich | Neueste Meldungen
Ortszeit Temperatur Wetter
Mi, 03.03. 19:00 7.6° C bedeckt
Mi, 03.03. 13:00 10.2° C wolkig
Mi, 03.03. 7:00 6.0° C bewölkt
Mi, 03.03. 1:00 6.6° C wolkig
Di, 02.03. 19:00 8.1° C wolkenlos
Di, 02.03. 13:00 11.4° C wolkenlos
Di, 02.03. 7:00 5.0° C wolkenlos
Di, 02.03. 1:00 4.7° C wolkenlos
Ortszeit Temperatur Wetter
Mi, 03.03. 22:30 7.5° C bedeckt
Mi, 03.03. 22:20 7.5° C bedeckt
Mi, 03.03. 22:10 7.4° C bedeckt
Mi, 03.03. 22:00 7.6° C bedeckt
Mi, 03.03. 21:50 7.6° C bedeckt
Mi, 03.03. 21:40 7.4° C bedeckt
Mi, 03.03. 21:30 7.5° C bedeckt
Mi, 03.03. 21:00 7.9° C bedeckt
Ortszeit Relative Feuchte Sichtweite
Mi, 03.03. 19:00 48% 50 km
Mi, 03.03. 13:00 32% 45 km
Mi, 03.03. 7:00 39% >70 km
Mi, 03.03. 1:00 46% 55 km
Di, 02.03. 19:00 54% 40 km
Di, 02.03. 13:00 39% 65 km
Di, 02.03. 7:00 50% 55 km
Di, 02.03. 1:00 63% 50 km
Ortszeit Relative Feuchte Sichtweite
Mi, 03.03. 22:30 39% 55 km
Mi, 03.03. 22:20 39% -
Mi, 03.03. 22:10 39% -
Mi, 03.03. 22:00 39% 65 km
Mi, 03.03. 21:50 39% -
Mi, 03.03. 21:40 40% -
Mi, 03.03. 21:30 40% 65 km
Mi, 03.03. 21:00 40% >70 km
Ortszeit Niederschlagsmenge Niederschlagsart
Mi, 03.03. 19:00 0.0 l/m2 in 12 Std. -
Mi, 03.03. 13:00 0.0 l/m2 in 6 Std. -
Mi, 03.03. 7:00 0.0 l/m2 in 12 Std. -
Mi, 03.03. 1:00 0.0 l/m2 in 6 Std. -
Di, 02.03. 19:00 0.0 l/m2 in 12 Std. -
Di, 02.03. 13:00 0.0 l/m2 in 6 Std. -
Di, 02.03. 7:00 0.0 l/m2 in 12 Std. -
Di, 02.03. 1:00 0.0 l/m2 in 6 Std. -
Ortszeit Niederschlagsmenge Niederschlagsart
Mi, 03.03. 22:30 0.0 l/m2 in 1 Std. -
Mi, 03.03. 22:20 keine Meldung -
Mi, 03.03. 22:10 keine Meldung -
Mi, 03.03. 22:00 0.0 l/m2 in 1 Std. -
Mi, 03.03. 21:50 keine Meldung -
Mi, 03.03. 21:40 keine Meldung -
Mi, 03.03. 21:30 0.0 l/m2 in 1 Std. -
Mi, 03.03. 21:00 0.0 l/m2 in 1 Std. -
Ortszeit Stärke Spitze Richtung
km/h Bft. km/h Grad Sektor
Mi, 03.03. 19:00 7 2 14 220° SW
Mi, 03.03. 13:00 9 2 17 280° W
Mi, 03.03. 7:00 9 2 17 190° S
Mi, 03.03. 1:00 7 2 17 250° W
Di, 02.03. 19:00 14 3 18 40° NO
Di, 02.03. 13:00 6 1 15 330° NW
Di, 02.03. 7:00 14 3 22 260° W
Di, 02.03. 1:00 9 2 26 140° SO
Ortszeit Stärke Spitze Richtung
km/h Bft. km/h Grad Sektor
Mi, 03.03. 22:30 18 3 29 230° SW
Mi, 03.03. 22:20 18 3 - 230° SW
Mi, 03.03. 22:10 18 3 - 230° SW
Mi, 03.03. 22:00 18 3 25 240° SW
Mi, 03.03. 21:50 18 3 - 240° SW
Mi, 03.03. 21:40 18 3 - 230° SW
Mi, 03.03. 21:30 14 3 22 230° SW
Mi, 03.03. 21:00 17 3 20 240° SW
Ortszeit Untergrenze Bedeckung Gattung
total tief tief mittel hoch
Mi, 03.03. 19:00 6600 m 8/8 8/8 - - -
Mi, 03.03. 13:00 6600 m 7/8 3/8 - - -
Mi, 03.03. 7:00 6600 m 8/8 6/8 - - -
Mi, 03.03. 1:00 7200 m 8/8 0/8 - - -
Di, 02.03. 19:00 - 0/8 0/8 - - -
Di, 02.03. 13:00 - 0/8 0/8 - - -
Di, 02.03. 7:00 - 0/8 0/8 - - -
Di, 02.03. 1:00 - 0/8 0/8 - - -
Ortszeit Bedeckungsgrad in Achtel und Wolkenuntergrenze
Mi, 03.03. 22:30 8(6600m) 8(8100m)
Mi, 03.03. 22:20 8(6600m) 8(8100m)
Mi, 03.03. 22:10 8(6900m) 8(8100m)
Mi, 03.03. 22:00 8(6600m) 8(7800m)
Mi, 03.03. 21:50 8(6600m) 8(7800m)
Mi, 03.03. 21:40 8(6900m) 8(7800m)
Mi, 03.03. 21:30 8(6900m) 8(7800m)
Mi, 03.03. 21:00 8(6600m) 8(7800m)
Ortszeit Stationsdruck (hPa) Tendenz (hPa in 3 Std.)
Mi, 03.03. 19:00 913 - 0,8
Mi, 03.03. 13:00 915 - 0,5
Mi, 03.03. 7:00 916 - 0,1
Mi, 03.03. 1:00 917 - 0,3
Di, 02.03. 19:00 917 + 0,4
Di, 02.03. 13:00 917 + 0,4
Di, 02.03. 7:00 915 + 0,6
Di, 02.03. 1:00 915 0,0
Ortszeit Stationsdruck (hPa) Tendenz (hPa in 3 Std.)
Mi, 03.03. 22:30 912 - 1,3
Mi, 03.03. 22:20 912 keine Meldung
Mi, 03.03. 22:10 912 keine Meldung
Mi, 03.03. 22:00 912 - 1,2
Mi, 03.03. 21:50 912 keine Meldung
Mi, 03.03. 21:40 912 keine Meldung
Mi, 03.03. 21:30 912 - 1,1
Mi, 03.03. 21:00 913 - 0,8
Ortszeit Schneehöhe (cm)
Mi, 03.03. 19:00 0
Mi, 03.03. 13:00 0
Mi, 03.03. 7:00 0
Mi, 03.03. 1:00 0
Di, 02.03. 19:00 0
Di, 02.03. 13:00 0
Di, 02.03. 7:00 0
Di, 02.03. 1:00 0
Ortszeit Schneehöhe (cm)
Mi, 03.03. 22:30 0
Mi, 03.03. 22:20 0
Mi, 03.03. 22:10 0
Mi, 03.03. 22:00 0
Mi, 03.03. 21:50 0
Mi, 03.03. 21:40 0
Mi, 03.03. 21:30 0
Mi, 03.03. 21:00 0
Link zu dieser Seite / Seite empfehlen

Das Wetter in ...